Time;durP1;ratioP1;P1;durP2;ratioP2;P2;SDS_P1;SDS_P2;PMS_P1;PMS_P2;Temp;Humidity;BMP_temperature;BMP_pressure;BME280_temperature;BME280_humidity;BME280_pressure;Samples;Min_cycle;Max_cycle;Signal;HPM_P1;HPM_P2
2023/09/25 00:01:36;;;;;;;4.78;2.60;;;14.10;99.90;;;;;;4997938;28;20049;-80
2023/09/25 00:04:02;;;;;;;5.22;2.80;;;14.00;99.90;;;;;;4996762;28;20046;-80
2023/09/25 00:06:28;;;;;;;6.65;2.83;;;14.00;99.90;;;;;;4997547;28;20521;-80
2023/09/25 00:08:57;;;;;;;5.47;2.85;;;13.90;99.90;;;;;;4996641;28;20053;-80
2023/09/25 00:11:22;;;;;;;5.80;3.00;;;14.00;99.90;;;;;;4996917;28;20170;-80
2023/09/25 00:13:49;;;;;;;6.13;2.80;;;13.90;99.90;;;;;;4997334;28;20128;-79
2023/09/25 00:16:16;;;;;;;4.90;2.42;;;14.00;99.90;;;;;;4997461;28;20121;-79
2023/09/25 00:18:42;;;;;;;5.43;2.78;;;14.00;99.90;;;;;;4997089;28;20493;-80
2023/09/25 00:21:08;;;;;;;4.78;2.65;;;14.00;99.90;;;;;;4997376;28;20037;-80
2023/09/25 00:23:34;;;;;;;5.97;2.83;;;14.00;99.90;;;;;;4996461;28;20054;-79
2023/09/25 00:26:03;;;;;;;6.38;2.80;;;13.90;99.90;;;;;;4996787;28;20049;-80
2023/09/25 00:28:29;;;;;;;3.92;2.33;;;14.00;99.90;;;;;;4997767;28;20060;-80
2023/09/25 00:30:55;;;;;;;6.60;2.67;;;13.90;99.90;;;;;;4996240;28;20038;-79
2023/09/25 00:33:20;;;;;;;3.70;2.42;;;13.90;99.90;;;;;;5014794;28;20045;-80
2023/09/25 00:35:46;;;;;;;5.60;2.83;;;13.90;99.90;;;;;;4996914;28;20052;-79
2023/09/25 00:38:13;;;;;;;4.82;2.10;;;13.80;99.90;;;;;;4996489;28;20046;-79
2023/09/25 00:40:38;;;;;;;5.65;2.78;;;13.80;99.90;;;;;;4996902;28;20088;-79
2023/09/25 00:43:07;;;;;;;4.55;2.67;;;13.90;99.90;;;;;;4996644;28;20073;-79
2023/09/25 00:45:37;;;;;;;7.32;2.60;;;13.90;99.90;;;;;;4996118;28;20041;-79
2023/09/25 00:48:05;;;;;;;5.60;2.70;;;13.90;99.90;;;;;;4996564;28;20045;-79
2023/09/25 00:50:35;;;;;;;4.72;2.42;;;13.90;99.90;;;;;;5014386;28;20049;-79
2023/09/25 00:53:09;;;;;;;4.05;2.40;;;13.80;99.90;;;;;;4995783;28;20045;-79
2023/09/25 00:55:35;;;;;;;3.90;2.13;;;13.80;99.90;;;;;;4996152;28;20034;-79
2023/09/25 00:58:01;;;;;;;5.13;2.72;;;13.70;99.90;;;;;;4996350;28;20046;-79
2023/09/25 01:00:30;;;;;;;5.95;2.60;;;13.70;99.90;;;;;;4996029;28;20077;-79
2023/09/25 01:02:56;;;;;;;4.18;2.50;;;13.70;99.90;;;;;;4995554;28;20429;-79
2023/09/25 01:05:21;;;;;;;5.85;2.80;;;13.70;99.90;;;;;;4996526;28;20052;-79
2023/09/25 01:07:47;;;;;;;7.25;2.75;;;13.70;99.90;;;;;;4995430;28;20041;-79
2023/09/25 01:10:17;;;;;;;5.45;2.83;;;13.70;99.90;;;;;;5014128;28;20393;-79
2023/09/25 01:12:48;;;;;;;6.25;3.22;;;13.60;99.90;;;;;;4995987;28;20132;-79
2023/09/25 01:15:14;;;;;;;6.38;3.00;;;13.60;99.90;;;;;;4996494;28;20046;-80
2023/09/25 01:17:41;;;;;;;5.35;2.75;;;13.60;99.90;;;;;;4996711;28;20053;-80
2023/09/25 01:20:11;;;;;;;5.07;2.70;;;13.50;99.90;;;;;;4995537;28;20050;-80
2023/09/25 01:22:37;;;;;;;5.80;3.15;;;13.50;99.90;;;;;;4996165;28;20096;-80
2023/09/25 01:25:03;;;;;;;4.93;2.42;;;13.50;99.90;;;;;;4995808;28;20461;-79
2023/09/25 01:27:29;;;;;;;5.28;3.00;;;13.50;99.90;;;;;;4995640;28;20121;-79
2023/09/25 01:29:54;;;;;;;6.43;3.17;;;13.50;99.90;;;;;;4995418;28;20046;-80
2023/09/25 01:32:20;;;;;;;4.90;3.20;;;13.30;99.90;;;;;;4996142;28;20129;-79
2023/09/25 01:34:46;;;;;;;5.63;2.60;;;13.30;99.90;;;;;;4995454;28;20053;-79
2023/09/25 01:37:12;;;;;;;4.70;2.95;;;13.30;99.90;;;;;;4996260;28;20057;-79
2023/09/25 01:39:37;;;;;;;9.25;3.47;;;13.30;99.90;;;;;;5013585;28;20038;-79
2023/09/25 01:42:06;;;;;;;4.95;3.08;;;13.40;99.90;;;;;;4994408;28;20046;-79
2023/09/25 01:44:33;;;;;;;6.22;3.10;;;13.40;99.90;;;;;;4995885;28;20038;-79
2023/09/25 01:46:58;;;;;;;5.95;3.30;;;13.40;99.90;;;;;;4995061;28;20100;-78
2023/09/25 01:49:24;;;;;;;6.32;3.10;;;13.30;99.90;;;;;;5012657;28;20041;-79
2023/09/25 01:51:50;;;;;;;6.60;2.90;;;13.20;99.90;;;;;;4995609;28;20052;-79
2023/09/25 01:54:15;;;;;;;6.00;3.70;;;13.30;99.90;;;;;;5013342;28;20038;-79
2023/09/25 01:56:45;;;;;;;6.45;3.42;;;13.30;99.90;;;;;;4994387;28;20137;-79
2023/09/25 01:59:10;;;;;;;5.68;3.33;;;13.20;99.90;;;;;;4994924;28;20042;-79
2023/09/25 02:01:36;;;;;;;6.50;3.17;;;13.10;99.90;;;;;;4995904;28;20057;-79
2023/09/25 02:04:02;;;;;;;5.20;3.20;;;13.10;99.90;;;;;;4994750;28;20128;-79
2023/09/25 02:06:27;;;;;;;6.15;3.42;;;13.20;99.90;;;;;;4995368;28;20042;-78
2023/09/25 02:08:53;;;;;;;6.35;3.28;;;13.10;99.90;;;;;;4994361;28;20481;-79
2023/09/25 02:11:19;;;;;;;7.18;3.38;;;13.10;99.90;;;;;;4995589;28;20053;-79
2023/09/25 02:13:44;;;;;;;7.13;3.45;;;13.10;99.90;;;;;;5013029;28;20042;-79
2023/09/25 02:16:10;;;;;;;9.27;3.40;;;13.00;99.90;;;;;;4994364;28;20044;-79
2023/09/25 02:18:36;;;;;;;6.82;3.42;;;13.00;99.90;;;;;;4995234;28;20045;-79
2023/09/25 02:21:01;;;;;;;6.03;3.63;;;13.00;99.90;;;;;;4995145;28;20362;-79
2023/09/25 02:23:27;;;;;;;5.13;3.22;;;13.00;99.90;;;;;;4994034;28;20050;-79
2023/09/25 02:25:52;;;;;;;5.95;3.28;;;12.90;99.90;;;;;;5012609;28;20050;-79
2023/09/25 02:28:18;;;;;;;6.85;3.45;;;12.90;99.90;;;;;;5012672;28;20053;-79
2023/09/25 02:30:43;;;;;;;7.65;3.97;;;12.80;99.90;;;;;;4994565;28;20460;-79
2023/09/25 02:33:09;;;;;;;5.85;3.50;;;12.90;99.90;;;;;;4994984;28;20046;-79
2023/09/25 02:35:36;;;;;;;5.70;3.28;;;13.00;99.90;;;;;;4995240;28;20054;-79
2023/09/25 02:38:02;;;;;;;6.47;3.72;;;12.80;99.90;;;;;;4993932;28;20088;-79
2023/09/25 02:40:28;;;;;;;6.00;3.47;;;12.80;99.90;;;;;;4995541;28;20139;-79
2023/09/25 02:42:54;;;;;;;6.32;3.67;;;12.70;99.90;;;;;;4994736;28;20046;-79
2023/09/25 02:45:25;;;;;;;7.00;3.25;;;12.60;99.90;;;;;;4994137;28;20050;-79
2023/09/25 02:47:51;;;;;;;5.85;3.05;;;12.70;99.90;;;;;;4994570;28;20071;-78
2023/09/25 02:50:17;;;;;;;6.65;3.40;;;12.70;99.90;;;;;;4995438;28;20052;-78
2023/09/25 02:52:43;;;;;;;6.45;3.25;;;12.60;99.90;;;;;;4994522;28;20197;-78
2023/09/25 02:55:09;;;;;;;11.05;3.08;;;12.70;99.90;;;;;;4994470;28;20053;-79
2023/09/25 02:57:35;;;;;;;6.43;3.05;;;12.70;99.90;;;;;;4994846;28;20042;-79
2023/09/25 03:00:01;;;;;;;4.93;2.97;;;12.70;99.90;;;;;;4993435;28;20441;-79
2023/09/25 03:02:26;;;;;;;7.40;3.45;;;12.70;99.90;;;;;;4994283;28;20489;-79
2023/09/25 03:04:53;;;;;;;5.15;3.20;;;12.60;99.90;;;;;;4994647;28;20109;-79
2023/09/25 03:07:19;;;;;;;5.65;3.38;;;12.60;99.90;;;;;;4994196;28;20054;-79
2023/09/25 03:09:45;;;;;;;6.15;3.05;;;12.80;99.90;;;;;;4994053;28;20054;-79
2023/09/25 03:12:10;;;;;;;5.68;3.90;;;12.70;99.90;;;;;;4994057;28;20129;-79
2023/09/25 03:14:36;;;;;;;5.35;3.35;;;12.60;99.90;;;;;;4995250;28;20049;-78
2023/09/25 03:17:02;;;;;;;4.20;2.85;;;12.60;99.90;;;;;;4994646;28;20088;-78
2023/09/25 03:19:31;;;;;;;4.97;2.75;;;12.60;99.90;;;;;;4995582;28;20826;-78
2023/09/25 03:21:56;;;;;;;4.80;2.97;;;12.60;99.90;;;;;;4998223;28;20081;-78
2023/09/25 03:24:22;;;;;;;5.22;2.97;;;12.60;99.90;;;;;;4997990;28;20058;-78
2023/09/25 03:26:50;;;;;;;4.72;3.08;;;12.80;99.90;;;;;;4997541;28;20045;-78
2023/09/25 03:29:16;;;;;;;6.25;3.42;;;12.60;99.90;;;;;;5016201;28;20044;-78
2023/09/25 03:31:41;;;;;;;7.35;3.03;;;12.60;99.90;;;;;;4998494;28;20045;-78
2023/09/25 03:34:07;;;;;;;6.53;3.47;;;12.60;99.90;;;;;;4997249;28;20049;-78
2023/09/25 03:36:33;;;;;;;6.20;3.50;;;12.60;99.90;;;;;;4998298;28;20474;-78
2023/09/25 03:38:58;;;;;;;5.10;3.17;;;12.60;99.90;;;;;;4997976;28;20053;-78
2023/09/25 03:41:24;;;;;;;5.72;3.45;;;12.60;99.90;;;;;;4997311;28;20079;-78
2023/09/25 03:43:50;;;;;;;5.68;3.67;;;12.60;99.90;;;;;;4997779;28;20045;-78
2023/09/25 03:46:16;;;;;;;5.13;3.45;;;12.60;99.90;;;;;;4997438;28;20131;-78
2023/09/25 03:48:42;;;;;;;4.18;2.75;;;12.40;99.90;;;;;;5014918;28;20482;-78
2023/09/25 03:51:08;;;;;;;7.60;2.67;;;12.40;99.90;;;;;;4996544;28;20053;-78
2023/09/25 03:53:33;;;;;;;5.07;3.20;;;12.50;99.90;;;;;;5015873;28;20069;-78
2023/09/25 03:55:59;;;;;;;7.30;3.00;;;12.50;99.90;;;;;;4996865;28;20042;-78
2023/09/25 03:58:25;;;;;;;6.30;3.22;;;12.50;99.90;;;;;;4998174;28;20037;-78
2023/09/25 04:00:52;;;;;;;5.63;3.40;;;12.50;99.90;;;;;;4997355;28;20644;-78
2023/09/25 04:03:18;;;;;;;5.63;3.10;;;12.50;99.90;;;;;;4993631;28;20073;-78
2023/09/25 04:05:43;;;;;;;8.13;3.25;;;12.50;99.90;;;;;;4994163;28;20101;-78
2023/09/25 04:08:12;;;;;;;5.05;3.00;;;12.40;99.90;;;;;;4994236;28;20072;-79
2023/09/25 04:10:40;;;;;;;5.68;2.92;;;12.50;99.90;;;;;;4994304;28;20137;-78
2023/09/25 04:13:08;;;;;;;6.70;3.30;;;12.40;99.90;;;;;;4978186;28;20138;-78
2023/09/25 04:15:34;;;;;;;6.65;3.20;;;12.40;99.90;;;;;;4977674;28;20461;-78
2023/09/25 04:18:06;;;;;;;7.57;3.47;;;12.40;99.90;;;;;;4978095;28;20078;-79
2023/09/25 04:20:32;;;;;;;7.05;3.30;;;12.30;99.90;;;;;;4986265;28;20502;-78
2023/09/25 04:22:57;;;;;;;6.47;3.00;;;12.40;99.90;;;;;;4993150;28;20057;-78
2023/09/25 04:25:24;;;;;;;7.50;3.60;;;12.30;99.90;;;;;;4995577;28;20390;-78
2023/09/25 04:27:55;;;;;;;6.75;3.85;;;12.40;99.90;;;;;;4993594;28;20490;-78
2023/09/25 04:30:23;;;;;;;6.45;3.15;;;12.40;99.90;;;;;;4993294;28;20468;-79
2023/09/25 04:32:53;;;;;;;8.73;3.22;;;12.30;99.90;;;;;;4993730;28;20132;-78
2023/09/25 04:35:20;;;;;;;5.78;3.50;;;12.30;99.90;;;;;;4993970;28;20050;-79
2023/09/25 04:37:46;;;;;;;6.20;3.10;;;12.30;99.90;;;;;;4993172;28;20073;-78
2023/09/25 04:40:23;;;;;;;6.45;3.30;;;12.30;99.90;;;;;;4993313;28;20088;-78
2023/09/25 04:42:52;;;;;;;4.55;3.05;;;12.30;99.90;;;;;;4994154;28;20081;-80
2023/09/25 04:45:19;;;;;;;8.77;3.60;;;12.40;99.90;;;;;;4995828;28;20042;-78
2023/09/25 04:47:52;;;;;;;5.32;3.45;;;12.40;99.90;;;;;;5013283;28;20042;-78
2023/09/25 04:50:19;;;;;;;6.97;3.70;;;12.30;99.90;;;;;;5013486;28;20112;-76
2023/09/25 04:52:45;;;;;;;5.65;3.28;;;12.30;99.90;;;;;;4996458;28;20041;-77
2023/09/25 04:55:15;;;;;;;5.50;3.78;;;12.30;99.90;;;;;;4996944;28;20077;-78
2023/09/25 04:57:42;;;;;;;7.97;3.35;;;12.20;99.90;;;;;;4992755;28;20043;-77
2023/09/25 05:00:22;;;;;;;6.30;3.75;;;12.20;99.90;;;;;;4993191;28;20137;-78
2023/09/25 05:02:49;;;;;;;5.00;3.03;;;12.30;99.90;;;;;;4996145;28;20092;-78
2023/09/25 05:05:16;;;;;;;7.40;3.83;;;12.30;99.90;;;;;;4995503;28;20050;-77
2023/09/25 05:07:47;;;;;;;6.55;3.55;;;12.30;99.90;;;;;;4996186;28;20448;-79
2023/09/25 05:10:15;;;;;;;4.93;3.30;;;12.20;99.90;;;;;;4996330;28;20045;-85
2023/09/25 05:12:42;;;;;;;6.25;3.00;;;12.30;99.90;;;;;;4995184;28;20136;-87
2023/09/25 05:15:09;;;;;;;5.15;3.40;;;12.30;99.90;;;;;;4995808;28;20073;-80
2023/09/25 05:17:36;;;;;;;5.47;3.13;;;12.30;99.90;;;;;;5009911;28;20493;-78
2023/09/25 05:20:10;;;;;;;6.03;3.78;;;12.40;99.90;;;;;;4991869;28;20485;-78
2023/09/25 05:22:40;;;;;;;5.15;3.05;;;12.30;99.90;;;;;;4996473;28;20049;-79
2023/09/25 05:25:10;;;;;;;6.30;3.35;;;12.50;99.90;;;;;;4994680;28;20065;-75
2023/09/25 05:27:41;;;;;;;5.85;3.05;;;12.40;99.90;;;;;;4983484;28;20046;-76
2023/09/25 05:30:11;;;;;;;4.90;3.47;;;12.40;99.90;;;;;;4995459;28;20064;-77
2023/09/25 05:32:37;;;;;;;6.22;3.53;;;12.40;99.90;;;;;;4996060;28;20046;-74
2023/09/25 05:35:04;;;;;;;6.05;3.53;;;12.40;99.90;;;;;;4994288;28;20133;-74
2023/09/25 05:37:30;;;;;;;6.75;3.13;;;12.30;99.90;;;;;;4995974;28;20064;-73
2023/09/25 05:39:55;;;;;;;7.15;3.00;;;12.30;99.90;;;;;;4994687;28;20545;-78
2023/09/25 05:42:21;;;;;;;5.75;3.47;;;12.30;99.90;;;;;;4995211;28;20057;-81
2023/09/25 05:44:47;;;;;;;6.82;3.55;;;12.40;99.90;;;;;;4995156;28;20069;-75
2023/09/25 05:47:12;;;;;;;4.68;2.95;;;12.40;99.90;;;;;;4995120;28;20925;-76
2023/09/25 05:49:38;;;;;;;6.07;2.88;;;12.30;99.90;;;;;;4995783;28;20520;-75
2023/09/25 05:52:04;;;;;;;7.07;2.83;;;12.50;99.90;;;;;;5012139;28;20401;-75
2023/09/25 05:54:31;;;;;;;5.53;2.60;;;12.60;99.90;;;;;;4993951;28;20157;-75
2023/09/25 05:56:57;;;;;;;4.65;2.80;;;12.70;99.90;;;;;;4994822;28;20056;-75
2023/09/25 05:59:22;;;;;;;6.97;3.17;;;12.60;99.90;;;;;;4995387;28;20433;-75
2023/09/25 06:01:48;;;;;;;4.47;2.97;;;12.50;99.90;;;;;;4994407;28;20405;-74
2023/09/25 06:04:15;;;;;;;5.35;2.88;;;12.70;99.90;;;;;;4995085;28;20049;-75
2023/09/25 06:06:41;;;;;;;4.20;2.60;;;12.70;99.90;;;;;;4995437;28;20088;-75
2023/09/25 06:09:08;;;;;;;4.80;3.00;;;12.80;99.90;;;;;;4994378;28;20069;-75
2023/09/25 06:11:38;;;;;;;5.88;3.00;;;12.90;99.90;;;;;;4995423;28;20061;-75
2023/09/25 06:14:04;;;;;;;4.47;2.78;;;12.90;99.90;;;;;;4994615;28;20069;-75
2023/09/25 06:16:30;;;;;;;6.88;2.97;;;12.90;99.90;;;;;;4993751;28;20073;-75
2023/09/25 06:18:55;;;;;;;5.60;2.80;;;12.90;99.90;;;;;;4995016;28;20046;-75
2023/09/25 06:21:21;;;;;;;5.95;2.58;;;13.00;99.90;;;;;;4995684;28;20129;-75
2023/09/25 06:23:49;;;;;;;7.10;2.70;;;12.90;99.90;;;;;;5010963;28;20049;-75
2023/09/25 06:26:15;;;;;;;4.38;2.45;;;13.00;99.90;;;;;;4995161;28;20052;-75
2023/09/25 06:28:42;;;;;;;3.90;2.40;;;13.00;99.90;;;;;;4995002;28;20124;-75
2023/09/25 06:31:08;;;;;;;5.55;2.58;;;12.90;99.90;;;;;;4994481;28;20155;-76
2023/09/25 06:33:34;;;;;;;4.30;2.40;;;13.00;99.90;;;;;;4995129;28;20053;-75
2023/09/25 06:36:00;;;;;;;3.53;2.20;;;13.00;99.90;;;;;;4994512;28;20038;-75
2023/09/25 06:38:26;;;;;;;5.53;2.33;;;13.10;99.90;;;;;;4994489;28;20042;-75
2023/09/25 06:40:51;;;;;;;4.78;2.50;;;13.20;99.90;;;;;;4994909;28;20096;-75
2023/09/25 06:43:17;;;;;;;4.53;2.47;;;13.20;99.90;;;;;;4994275;28;20046;-75
2023/09/25 06:45:46;;;;;;;5.45;2.65;;;13.30;99.90;;;;;;4994475;28;20042;-75
2023/09/25 06:48:11;;;;;;;6.38;2.58;;;13.20;99.90;;;;;;4994700;28;20052;-75
2023/09/25 06:50:37;;;;;;;4.97;2.60;;;13.30;99.90;;;;;;5011737;28;20046;-75
2023/09/25 06:53:03;;;;;;;5.32;2.90;;;13.40;99.90;;;;;;5012967;28;20066;-75
2023/09/25 06:55:30;;;;;;;4.60;2.35;;;13.40;99.90;;;;;;4998804;28;20056;-74
2023/09/25 06:57:56;;;;;;;5.22;2.58;;;13.40;99.90;;;;;;4997862;28;20125;-74
2023/09/25 07:00:23;;;;;;;5.25;2.92;;;13.50;99.90;;;;;;4998903;28;20136;-74
2023/09/25 07:02:50;;;;;;;4.30;2.30;;;13.60;99.90;;;;;;4998536;28;20053;-74
2023/09/25 07:05:16;;;;;;;4.80;2.28;;;13.60;99.90;;;;;;4997087;28;20145;-75
2023/09/25 07:07:42;;;;;;;4.18;2.30;;;13.70;99.90;;;;;;4998397;28;20049;-74
2023/09/25 07:10:10;;;;;;;4.88;2.30;;;13.90;99.90;;;;;;4998322;28;20132;-75
2023/09/25 07:12:37;;;;;;;4.03;2.50;;;14.00;99.90;;;;;;4997972;28;20052;-75
2023/09/25 07:15:03;;;;;;;4.63;2.53;;;14.00;99.90;;;;;;4998633;28;20092;-74
2023/09/25 07:17:29;;;;;;;5.63;2.60;;;14.00;99.90;;;;;;5015402;28;20128;-75
2023/09/25 07:19:55;;;;;;;3.92;2.28;;;14.00;99.90;;;;;;4997477;28;20068;-75
2023/09/25 07:22:27;;;;;;;3.35;1.92;;;14.00;99.90;;;;;;4998295;28;20096;-75
2023/09/25 07:24:54;;;;;;;5.07;2.78;;;14.10;99.90;;;;;;4998140;28;20058;-75
2023/09/25 07:27:20;;;;;;;7.18;2.30;;;14.20;99.90;;;;;;4997571;28;20057;-75
2023/09/25 07:29:47;;;;;;;4.25;2.42;;;14.40;99.90;;;;;;4998130;28;20057;-76
2023/09/25 07:32:19;;;;;;;5.70;2.40;;;14.40;99.90;;;;;;4998334;28;20054;-75
2023/09/25 07:34:45;;;;;;;4.32;2.05;;;14.60;99.90;;;;;;4997317;28;20038;-75
2023/09/25 07:37:13;;;;;;;4.65;2.17;;;14.80;99.90;;;;;;4997185;28;20514;-75
2023/09/25 07:39:40;;;;;;;7.28;2.45;;;14.70;99.90;;;;;;4996168;28;20078;-75
2023/09/25 07:42:09;;;;;;;5.30;2.33;;;14.90;99.90;;;;;;4997207;28;20054;-75
2023/09/25 07:44:42;;;;;;;5.78;2.38;;;15.20;99.90;;;;;;4997276;28;20050;-76
2023/09/25 07:47:10;;;;;;;6.50;2.30;;;15.50;99.90;;;;;;4996274;28;20049;-76
2023/09/25 07:49:40;;;;;;;4.68;2.17;;;15.80;99.90;;;;;;4997272;28;20124;-76
2023/09/25 07:52:15;;;;;;;5.00;2.40;;;16.00;99.90;;;;;;4998036;28;20462;-76
2023/09/25 07:54:51;;;;;;;5.88;2.25;;;16.20;99.90;;;;;;4997309;28;20061;-76
2023/09/25 07:57:21;;;;;;;5.35;2.20;;;17.00;99.90;;;;;;4997998;28;20068;-76
2023/09/25 07:59:47;;;;;;;6.30;2.17;;;17.00;99.90;;;;;;4997299;28;20053;-76
2023/09/25 08:02:19;;;;;;;5.43;2.42;;;17.30;99.90;;;;;;4997259;28;20064;-76
2023/09/25 08:04:45;;;;;;;5.28;2.30;;;17.60;99.90;;;;;;4997013;28;20085;-76
2023/09/25 08:07:11;;;;;;;3.70;2.25;;;17.70;99.90;;;;;;4997383;28;20524;-76
2023/09/25 08:09:37;;;;;;;4.88;2.50;;;17.50;99.90;;;;;;5013802;28;20060;-76
2023/09/25 08:12:06;;;;;;;4.82;2.13;;;17.30;99.90;;;;;;4997423;28;20477;-76
2023/09/25 08:14:35;;;;;;;4.90;2.40;;;17.20;99.90;;;;;;4997805;28;20065;-76
2023/09/25 08:17:04;;;;;;;4.90;2.03;;;17.10;99.90;;;;;;4997264;28;20050;-75
2023/09/25 08:19:29;;;;;;;3.58;2.00;;;17.20;99.90;;;;;;4996578;28;20101;-75
2023/09/25 08:21:55;;;;;;;5.10;2.30;;;17.60;99.90;;;;;;4995979;28;20077;-75
2023/09/25 08:24:21;;;;;;;5.15;2.03;;;17.70;99.90;;;;;;4996721;28;20148;-74
2023/09/25 08:26:47;;;;;;;4.93;2.03;;;17.70;99.90;;;;;;4996809;28;20073;-78
2023/09/25 08:29:16;;;;;;;3.58;2.03;;;17.70;99.90;;;;;;4998255;28;20081;-86
2023/09/25 08:31:45;;;;;;;6.55;2.25;;;17.90;99.90;;;;;;4998544;28;20048;-83
2023/09/25 08:34:11;;;;;;;5.68;2.40;;;18.00;99.90;;;;;;4996866;28;20038;-74
2023/09/25 08:36:38;;;;;;;3.35;2.00;;;18.10;99.90;;;;;;4996516;28;20046;-76
2023/09/25 08:39:04;;;;;;;6.50;2.40;;;18.30;99.90;;;;;;4996571;28;20053;-78
2023/09/25 08:41:31;;;;;;;5.95;2.40;;;18.60;99.90;;;;;;4996442;28;20189;-76
2023/09/25 08:43:57;;;;;;;4.22;2.40;;;18.40;99.90;;;;;;4995614;28;20084;-76
2023/09/25 08:46:25;;;;;;;4.40;2.00;;;18.90;99.90;;;;;;4996515;28;20073;-76
2023/09/25 08:48:52;;;;;;;6.07;2.17;;;19.10;99.90;;;;;;4996396;28;20095;-75
2023/09/25 08:51:20;;;;;;;3.92;2.20;;;19.10;99.90;;;;;;4996049;28;20054;-75
2023/09/25 08:53:46;;;;;;;6.30;2.60;;;18.70;99.90;;;;;;4997029;28;20532;-75
2023/09/25 08:56:15;;;;;;;4.30;2.10;;;18.40;99.90;;;;;;4997008;28;20058;-75
2023/09/25 08:58:45;;;;;;;4.45;2.40;;;18.40;99.90;;;;;;5012309;28;20512;-76
2023/09/25 09:01:11;;;;;;;4.75;2.58;;;18.60;99.90;;;;;;4996146;28;20143;-78
2023/09/25 09:03:40;;;;;;;4.05;2.42;;;19.20;99.90;;;;;;4996031;28;20279;-79
2023/09/25 09:06:05;;;;;;;6.13;2.17;;;19.90;99.90;;;;;;4994580;28;20601;-80
2023/09/25 09:08:31;;;;;;;3.88;2.30;;;20.40;99.90;;;;;;5013326;28;20042;-79
2023/09/25 09:10:57;;;;;;;6.05;2.40;;;20.90;99.90;;;;;;4996574;28;20068;-78
2023/09/25 09:13:23;;;;;;;4.07;2.13;;;20.90;99.90;;;;;;4995839;28;20041;-80
2023/09/25 09:15:52;;;;;;;5.47;2.30;;;20.60;99.90;;;;;;4994016;28;20042;-79
2023/09/25 09:18:23;;;;;;;5.18;2.53;;;20.20;99.90;;;;;;4994371;28;20045;-79
2023/09/25 09:20:49;;;;;;;7.05;2.30;;;20.60;99.90;;;;;;5009218;28;20038;-79
2023/09/25 09:23:15;;;;;;;4.18;2.17;;;21.00;99.90;;;;;;5009098;28;20049;-79
2023/09/25 09:25:47;;;;;;;4.55;2.28;;;21.40;99.30;;;;;;4994784;28;20052;-78
2023/09/25 09:28:13;;;;;;;5.50;2.33;;;21.80;99.00;;;;;;4995997;28;20052;-78
2023/09/25 09:30:41;;;;;;;5.38;2.22;;;22.20;98.60;;;;;;4995376;28;20408;-76
2023/09/25 09:33:13;;;;;;;4.90;2.10;;;22.70;98.30;;;;;;4994453;28;20044;-75
2023/09/25 09:35:39;;;;;;;5.13;2.10;;;23.10;97.30;;;;;;4991442;28;20084;-75
2023/09/25 09:38:05;;;;;;;4.63;2.50;;;23.60;96.30;;;;;;4995281;28;20128;-78
2023/09/25 09:40:34;;;;;;;7.72;2.58;;;23.90;95.60;;;;;;4995215;28;20058;-77
2023/09/25 09:43:03;;;;;;;5.18;2.35;;;24.20;95.60;;;;;;4992729;28;20038;-76
2023/09/25 09:45:30;;;;;;;6.03;2.53;;;24.30;94.40;;;;;;4995345;28;20120;-75
2023/09/25 09:47:56;;;;;;;5.57;2.83;;;24.60;94.40;;;;;;4994494;28;20481;-75
2023/09/25 09:50:28;;;;;;;4.80;2.20;;;24.40;94.00;;;;;;4995769;28;20046;-75
2023/09/25 09:52:54;;;;;;;4.53;2.10;;;24.50;93.50;;;;;;4994834;28;20089;-78
2023/09/25 09:55:21;;;;;;;5.90;2.20;;;24.50;94.10;;;;;;4994720;28;20063;-78
2023/09/25 09:57:50;;;;;;;5.53;2.00;;;24.80;93.80;;;;;;4994895;28;20389;-77
2023/09/25 10:00:17;;;;;;;3.95;2.05;;;25.00;93.80;;;;;;4994574;28;20493;-75
2023/09/25 10:02:52;;;;;;;6.30;2.53;;;25.10;92.80;;;;;;4994783;28;20782;-80
2023/09/25 10:05:17;;;;;;;6.97;2.35;;;25.00;93.40;;;;;;4995621;28;20041;-76
2023/09/25 10:08:18;;;;;;;4.82;2.20;;;24.70;93.30;;;;;;4994869;28;20049;-78
2023/09/25 10:10:48;;;;;;;5.47;2.35;;;24.40;93.50;;;;;;4936360;29;20054;-77
2023/09/25 10:13:25;;;;;;;7.95;2.40;;;24.50;94.10;;;;;;4984541;28;20061;-76
2023/09/25 10:16:01;;;;;;;6.85;2.30;;;24.70;93.20;;;;;;4994563;28;20169;-74
2023/09/25 10:18:30;;;;;;;5.80;2.70;;;24.70;93.80;;;;;;4995137;28;20069;-78
2023/09/25 10:21:13;;;;;;;5.45;2.40;;;24.50;93.80;;;;;;5012083;28;20425;-79
2023/09/25 10:23:42;;;;;;;5.70;2.60;;;24.50;93.60;;;;;;4994426;28;20053;-80
2023/09/25 10:26:31;;;;;;;7.07;2.45;;;24.40;94.00;;;;;;4994797;28;20053;-75
2023/09/25 10:29:19;;;;;;;8.63;3.65;;;24.50;93.90;;;;;;4994153;28;20060;-76
2023/09/25 10:31:48;;;;;;;5.10;2.40;;;24.60;94.60;;;;;;4994615;28;20453;-75
2023/09/25 10:34:14;;;;;;;6.32;2.35;;;25.40;93.50;;;;;;5011057;28;20037;-76
2023/09/25 10:36:45;;;;;;;4.75;2.33;;;24.90;93.30;;;;;;4993837;28;20087;-76
2023/09/25 10:39:14;;;;;;;4.72;2.40;;;24.90;93.10;;;;;;4994814;28;20053;-76
2023/09/25 10:41:47;;;;;;;4.70;2.33;;;24.30;93.60;;;;;;4994602;28;20081;-76
2023/09/25 10:44:13;;;;;;;5.13;2.50;;;24.80;93.60;;;;;;5011127;28;20046;-76
2023/09/25 10:46:43;;;;;;;5.55;2.70;;;24.90;93.50;;;;;;4994737;28;20516;-76
2023/09/25 10:49:09;;;;;;;4.20;2.28;;;25.00;93.60;;;;;;4994017;28;20501;-77
2023/09/25 10:51:38;;;;;;;4.95;2.40;;;25.20;92.80;;;;;;5011442;28;20048;-77
2023/09/25 10:54:03;;;;;;;5.10;2.75;;;25.30;93.00;;;;;;5010960;28;20038;-78
2023/09/25 10:56:30;;;;;;;5.80;2.47;;;25.50;93.20;;;;;;4993829;28;20044;-74
2023/09/25 10:58:56;;;;;;;4.30;2.58;;;25.50;93.00;;;;;;4994334;28;20057;-74
2023/09/25 11:01:31;;;;;;;5.20;2.90;;;25.10;93.60;;;;;;5012307;28;20104;-74
2023/09/25 11:04:00;;;;;;;6.82;2.70;;;25.20;93.00;;;;;;4993639;28;20494;-74
2023/09/25 11:06:27;;;;;;;4.88;2.45;;;25.40;93.00;;;;;;4994440;28;20452;-74
2023/09/25 11:09:01;;;;;;;4.30;2.30;;;25.50;92.70;;;;;;4994103;28;20060;-76
2023/09/25 11:11:27;;;;;;;4.90;2.70;;;25.30;93.00;;;;;;4993363;28;20046;-74
2023/09/25 11:13:53;;;;;;;4.88;2.40;;;25.20;93.10;;;;;;5012109;28;20413;-75
2023/09/25 11:16:20;;;;;;;6.75;2.70;;;25.40;93.30;;;;;;5012016;28;20104;-75
2023/09/25 11:18:49;;;;;;;6.65;2.38;;;25.30;93.40;;;;;;5011091;28;20509;-75
2023/09/25 11:21:14;;;;;;;4.45;2.38;;;25.50;93.10;;;;;;4994823;28;20545;-74
2023/09/25 11:23:42;;;;;;;4.90;2.25;;;25.60;93.10;;;;;;4993756;28;20149;-78
2023/09/25 11:26:10;;;;;;;5.88;2.65;;;25.50;93.10;;;;;;4992256;28;20080;-76
2023/09/25 11:28:37;;;;;;;6.07;3.03;;;25.60;93.30;;;;;;4992722;28;20052;-79
2023/09/25 11:31:06;;;;;;;5.25;2.65;;;25.20;93.40;;;;;;4993612;28;20050;-79
2023/09/25 11:33:32;;;;;;;4.93;2.60;;;24.50;93.70;;;;;;5006632;28;20057;-79
2023/09/25 11:35:57;;;;;;;5.50;2.47;;;24.20;93.60;;;;;;4993469;28;20041;-78
2023/09/25 11:38:25;;;;;;;4.75;2.53;;;24.00;94.70;;;;;;4993822;28;20389;-77
2023/09/25 11:40:52;;;;;;;6.00;3.00;;;24.00;94.00;;;;;;5011175;28;20050;-78
2023/09/25 11:43:18;;;;;;;5.35;2.70;;;23.40;94.90;;;;;;4997625;28;20504;-77
2023/09/25 11:45:44;;;;;;;5.68;2.83;;;23.10;95.30;;;;;;4996320;28;20042;-77
2023/09/25 11:48:10;;;;;;;4.72;2.63;;;22.90;95.70;;;;;;4997017;28;20037;-77
2023/09/25 11:50:37;;;;;;;6.18;3.03;;;22.80;95.90;;;;;;4997657;28;20046;-77
2023/09/25 11:53:02;;;;;;;5.18;2.83;;;22.90;96.40;;;;;;4996164;28;20046;-77
2023/09/25 11:55:28;;;;;;;5.60;2.40;;;23.10;96.10;;;;;;4997212;28;20610;-77
2023/09/25 11:57:55;;;;;;;4.53;2.47;;;23.10;96.00;;;;;;5014702;28;20493;-77
2023/09/25 12:00:23;;;;;;;4.97;2.45;;;22.90;96.10;;;;;;4984444;28;20180;-77
2023/09/25 12:02:49;;;;;;;4.88;2.75;;;22.90;96.70;;;;;;5014382;28;20042;-77
2023/09/25 12:05:16;;;;;;;4.50;2.88;;;23.00;96.30;;;;;;5014253;28;20037;-77
2023/09/25 12:07:42;;;;;;;6.18;3.28;;;23.00;96.60;;;;;;4996774;28;20056;-77
2023/09/25 12:10:12;;;;;;;5.00;2.75;;;23.10;96.20;;;;;;4999758;28;20553;-76
2023/09/25 12:12:41;;;;;;;5.35;2.78;;;22.90;96.60;;;;;;5014578;28;20046;-78
2023/09/25 12:15:08;;;;;;;5.38;3.00;;;22.80;96.80;;;;;;4998496;28;20490;-76
2023/09/25 12:17:38;;;;;;;7.47;2.83;;;22.60;96.50;;;;;;4993158;28;20057;-75
2023/09/25 12:20:14;;;;;;;7.35;2.83;;;22.40;97.00;;;;;;5014164;28;20050;-77
2023/09/25 12:22:46;;;;;;;6.13;2.80;;;22.20;97.10;;;;;;4995965;28;20046;-76
2023/09/25 12:25:19;;;;;;;6.30;3.03;;;22.20;96.80;;;;;;5014481;28;20041;-75
2023/09/25 12:27:45;;;;;;;6.45;2.80;;;22.10;97.40;;;;;;5015268;28;20038;-74
2023/09/25 12:30:14;;;;;;;5.00;2.65;;;22.00;97.70;;;;;;4996454;28;20054;-75
2023/09/25 12:32:40;;;;;;;6.00;3.03;;;21.90;98.00;;;;;;5012424;28;20045;-76
2023/09/25 12:35:07;;;;;;;5.10;2.90;;;21.70;98.10;;;;;;4995268;28;20065;-76
2023/09/25 12:37:33;;;;;;;6.07;3.13;;;21.70;98.80;;;;;;4996890;28;20128;-77
2023/09/25 12:39:59;;;;;;;6.55;3.30;;;21.60;98.70;;;;;;5014202;28;20396;-81
2023/09/25 12:42:25;;;;;;;5.80;3.00;;;21.50;98.70;;;;;;4995816;28;20048;-76
2023/09/25 12:44:50;;;;;;;5.47;3.25;;;21.40;99.80;;;;;;4996400;28;20049;-76
2023/09/25 12:47:19;;;;;;;6.60;3.30;;;21.50;99.40;;;;;;4994795;28;20550;-79
2023/09/25 12:49:45;;;;;;;7.70;3.22;;;21.60;99.00;;;;;;5013182;28;20489;-77